Time;durP1;ratioP1;P1;durP2;ratioP2;P2;SDS_P1;SDS_P2;PMS_P1;PMS_P2;Temp;Humidity;BMP_temperature;BMP_pressure;BME280_temperature;BME280_humidity;BME280_pressure;Samples;Min_cycle;Max_cycle;Signal;HPM_P1;HPM_P2
2024/04/18 00:00:47;;;;;;;7.20;6.50;;;;;;;;;;8233172;21;20861;-72
2024/04/18 00:03:50;;;;;;;4.78;3.38;;;;;;;;;;8235114;21;20002;-72
2024/04/18 00:06:53;;;;;;;4.78;3.88;;;;;;;;;;8280700;21;20007;-72
2024/04/18 00:09:56;;;;;;;5.53;5.03;;;;;;;;;;8282761;21;19995;-72
2024/04/18 00:13:06;;;;;;;6.53;4.43;;;;;;;;;;8284459;21;20721;-72
2024/04/18 00:16:28;;;;;;;6.18;3.33;;;;;;;;;;8285375;21;20010;-72
2024/04/18 00:19:49;;;;;;;6.53;4.22;;;;;;;;;;8282127;21;20010;-72
2024/04/18 00:23:07;;;;;;;8.55;5.80;;;;;;;;;;8282297;21;20011;-72
2024/04/18 00:26:09;;;;;;;9.65;6.65;;;;;;;;;;8282104;21;19995;-71
2024/04/18 00:29:35;;;;;;;7.18;4.20;;;;;;;;;;8284354;21;20085;-73
2024/04/18 00:32:43;;;;;;;;;;;;;;;;;;8241067;21;19999;-72
2024/04/18 00:36:09;;;;;;;7.43;5.53;;;;;;;;;;8284006;21;19927;-72
2024/04/18 00:39:21;;;;;;;9.85;5.70;;;;;;;;;;8285652;21;20547;-73
2024/04/18 00:42:33;;;;;;;9.73;7.18;;;;;;;;;;8282259;21;20000;-73
2024/04/18 00:45:39;;;;;;;10.95;9.88;;;;;;;;;;8284548;21;20363;-73
2024/04/18 00:48:57;;;;;;;9.95;6.68;;;;;;;;;;8282415;21;20017;-73
2024/04/18 00:52:01;;;;;;;9.73;6.15;;;;;;;;;;8273330;21;20535;-72
2024/04/18 00:55:04;;;;;;;8.10;5.22;;;;;;;;;;8238628;21;20298;-73
2024/04/18 00:58:12;;;;;;;8.75;5.57;;;;;;;;;;8282027;21;20003;-73
2024/04/18 01:01:15;;;;;;;8.35;4.97;;;;;;;;;;8237742;21;20005;-73
2024/04/18 01:04:31;;;;;;;10.80;6.22;;;;;;;;;;8281807;21;20011;-73
2024/04/18 01:07:46;;;;;;;10.93;5.57;;;;;;;;;;8280675;21;20010;-73
2024/04/18 01:10:55;;;;;;;6.57;3.50;;;;;;;;;;8279731;21;20017;-73
2024/04/18 01:13:57;;;;;;;7.20;5.55;;;;;;;;;;8280394;21;20647;-73
2024/04/18 01:17:04;;;;;;;6.43;3.67;;;;;;;;;;8282876;21;20433;-72
2024/04/18 01:20:08;;;;;;;8.55;5.00;;;;;;;;;;8279900;21;19995;-72
2024/04/18 01:23:10;;;;;;;9.05;5.57;;;;;;;;;;8282281;21;19995;-73
2024/04/18 01:26:18;;;;;;;8.00;4.28;;;;;;;;;;8280570;21;20014;-73
2024/04/18 01:29:21;;;;;;;8.57;4.90;;;;;;;;;;8191281;21;20440;-72
2024/04/18 01:32:41;;;;;;;7.28;3.97;;;;;;;;;;8281149;21;20003;-73
2024/04/18 01:35:44;;;;;;;10.07;5.15;;;;;;;;;;8235937;21;19999;-73
2024/04/18 01:38:55;;;;;;;10.85;8.95;;;;;;;;;;8199634;21;20630;-73
2024/04/18 01:42:04;;;;;;;8.00;4.90;;;;;;;;;;8283282;21;20077;-72
2024/04/18 01:45:16;;;;;;;10.82;9.02;;;;;;;;;;8279687;21;20737;-73
2024/04/18 01:48:19;;;;;;;7.20;3.30;;;;;;;;;;8277570;21;19995;-72
2024/04/18 01:51:40;;;;;;;7.78;4.03;;;;;;;;;;8282087;21;20013;-73
2024/04/18 01:55:04;;;;;;;7.60;5.63;;;;;;;;;;8280268;21;20076;-73
2024/04/18 01:58:10;;;;;;;9.02;4.82;;;;;;;;;;8237908;21;19999;-73
2024/04/18 02:01:13;;;;;;;10.13;7.43;;;;;;;;;;8281093;21;20005;-72
2024/04/18 02:04:17;;;;;;;5.90;3.85;;;;;;;;;;8235266;21;20053;-72
2024/04/18 02:07:21;;;;;;;8.10;5.13;;;;;;;;;;8283089;21;20003;-73
2024/04/18 02:10:36;;;;;;;8.70;7.05;;;;;;;;;;8235329;21;20477;-73
2024/04/18 02:13:40;;;;;;;8.18;5.60;;;;;;;;;;8279320;21;19999;-73
2024/04/18 02:16:43;;;;;;;7.05;3.78;;;;;;;;;;8282628;21;20002;-72
2024/04/18 02:19:58;;;;;;;9.57;4.93;;;;;;;;;;8282344;21;20591;-73
2024/04/18 02:23:17;;;;;;;11.23;8.40;;;;;;;;;;8281566;21;20734;-72
2024/04/18 02:26:25;;;;;;;7.18;6.05;;;;;;;;;;8281134;21;20659;-72
2024/04/18 02:29:28;;;;;;;9.75;5.15;;;;;;;;;;8279158;21;20017;-73
2024/04/18 02:32:33;;;;;;;10.57;6.28;;;;;;;;;;8235653;21;20034;-73
2024/04/18 02:35:36;;;;;;;8.95;6.40;;;;;;;;;;8191297;21;20006;-73
2024/04/18 02:38:39;;;;;;;8.73;5.93;;;;;;;;;;8280117;21;19999;-73
2024/04/18 02:41:41;;;;;;;8.15;5.43;;;;;;;;;;8278724;21;20010;-73
2024/04/18 02:45:22;;;;;;;8.95;4.45;;;;;;;;;;8248536;21;20007;-73
2024/04/18 02:48:43;;;;;;;8.70;6.10;;;;;;;;;;8279465;21;19999;-73
2024/04/18 02:51:58;;;;;;;8.15;4.70;;;;;;;;;;8239267;21;20014;-73
2024/04/18 02:55:18;;;;;;;7.93;5.55;;;;;;;;;;8278732;21;20043;-72
2024/04/18 02:58:30;;;;;;;8.02;5.30;;;;;;;;;;8193843;21;20442;-72
2024/04/18 03:01:51;;;;;;;5.60;4.57;;;;;;;;;;8278658;21;20753;-72
2024/04/18 03:04:55;;;;;;;8.07;7.32;;;;;;;;;;8278966;21;20516;-73
2024/04/18 03:07:58;;;;;;;9.60;5.93;;;;;;;;;;8278759;21;20003;-73
2024/04/18 03:11:19;;;;;;;8.23;5.55;;;;;;;;;;8196556;21;20011;-73
2024/04/18 03:14:41;;;;;;;8.73;5.05;;;;;;;;;;8281444;21;20085;-73
2024/04/18 03:17:44;;;;;;;7.50;4.47;;;;;;;;;;8281880;21;19999;-72
2024/04/18 03:21:09;;;;;;;6.97;4.72;;;;;;;;;;8244046;21;20068;-73
2024/04/18 03:24:17;;;;;;;10.05;5.65;;;;;;;;;;8236431;21;20014;-73
2024/04/18 03:27:20;;;;;;;9.10;5.22;;;;;;;;;;8280219;21;19995;-72
2024/04/18 03:30:23;;;;;;;7.55;4.05;;;;;;;;;;8278269;21;20084;-73
2024/04/18 03:33:42;;;;;;;8.00;5.13;;;;;;;;;;8279150;21;20006;-73
2024/04/18 03:36:50;;;;;;;9.88;6.15;;;;;;;;;;8233706;21;20006;-72
2024/04/18 03:40:03;;;;;;;10.85;5.95;;;;;;;;;;8278252;21;20006;-73
2024/04/18 03:43:06;;;;;;;9.45;5.47;;;;;;;;;;8281160;21;20003;-73
2024/04/18 03:46:09;;;;;;;10.23;5.97;;;;;;;;;;8283783;21;20090;-73
2024/04/18 03:49:31;;;;;;;7.15;4.13;;;;;;;;;;8282057;21;20003;-72
2024/04/18 03:52:34;;;;;;;11.65;7.03;;;;;;;;;;8191941;21;20538;-72
2024/04/18 03:55:42;;;;;;;5.80;4.40;;;;;;;;;;8280902;21;20010;-70
2024/04/18 03:58:44;;;;;;;8.32;4.60;;;;;;;;;;8283312;21;19991;-71
2024/04/18 04:01:47;;;;;;;11.70;7.10;;;;;;;;;;8282483;21;19999;-72
2024/04/18 04:04:50;;;;;;;11.65;7.35;;;;;;;;;;8237144;21;20005;-72
2024/04/18 04:07:52;;;;;;;11.30;7.05;;;;;;;;;;8282792;21;20009;-71
2024/04/18 04:11:16;;;;;;;9.57;5.22;;;;;;;;;;8242259;21;19995;-72
2024/04/18 04:14:19;;;;;;;10.68;6.57;;;;;;;;;;8280746;21;20007;-72
2024/04/18 04:17:27;;;;;;;10.70;5.63;;;;;;;;;;8281339;21;20003;-71
2024/04/18 04:20:40;;;;;;;8.95;4.68;;;;;;;;;;8282373;21;20006;-71
2024/04/18 04:23:43;;;;;;;9.80;5.97;;;;;;;;;;8235052;21;20683;-72
2024/04/18 04:26:46;;;;;;;7.40;3.83;;;;;;;;;;8237681;21;19995;-72
2024/04/18 04:29:48;;;;;;;6.47;4.03;;;;;;;;;;8279877;21;19995;-72
2024/04/18 04:32:51;;;;;;;11.43;6.85;;;;;;;;;;8280833;21;20433;-71
2024/04/18 04:36:06;;;;;;;6.70;3.85;;;;;;;;;;8280898;21;20390;-71
2024/04/18 04:39:09;;;;;;;8.73;4.75;;;;;;;;;;8236083;21;20006;-71
2024/04/18 04:42:15;;;;;;;8.07;6.93;;;;;;;;;;8281585;21;20321;-71
2024/04/18 04:45:18;;;;;;;11.93;5.55;;;;;;;;;;8237799;21;20076;-72
2024/04/18 04:48:38;;;;;;;7.32;4.75;;;;;;;;;;8281882;21;20081;-70
2024/04/18 04:51:44;;;;;;;7.13;5.05;;;;;;;;;;8238034;21;19999;-72
2024/04/18 04:55:07;;;;;;;6.25;4.97;;;;;;;;;;8282559;21;20065;-72
2024/04/18 04:58:10;;;;;;;6.55;4.60;;;;;;;;;;8281315;21;20387;-71
2024/04/18 05:01:12;;;;;;;8.88;6.88;;;;;;;;;;8282985;21;20043;-71
2024/04/18 05:04:15;;;;;;;7.72;5.93;;;;;;;;;;8192920;21;20042;-71
2024/04/18 05:07:18;;;;;;;7.78;6.85;;;;;;;;;;8282950;21;20357;-70
2024/04/18 05:10:20;;;;;;;8.95;6.70;;;;;;;;;;8237809;21;20868;-71
2024/04/18 05:13:23;;;;;;;9.15;6.53;;;;;;;;;;8283682;21;19995;-71
2024/04/18 05:16:46;;;;;;;7.32;4.65;;;;;;;;;;8282121;21;20006;-73
2024/04/18 05:19:48;;;;;;;7.68;4.80;;;;;;;;;;8192642;21;19995;-72
2024/04/18 05:23:10;;;;;;;5.13;4.03;;;;;;;;;;8243638;21;20065;-71
2024/04/18 05:26:12;;;;;;;7.78;5.30;;;;;;;;;;8235880;21;20007;-72
2024/04/18 05:32:36;;;;;;;12.27;6.22;;;;;;;;;;8278719;21;20030;-72
2024/04/18 05:35:45;;;;;;;6.97;4.65;;;;;;;;;;8280796;21;20003;-71
2024/04/18 05:38:48;;;;;;;8.68;6.07;;;;;;;;;;8279592;21;20010;-72
2024/04/18 05:41:50;;;;;;;9.60;5.32;;;;;;;;;;8280032;21;19995;-72
2024/04/18 05:45:06;;;;;;;10.35;5.57;;;;;;;;;;8279377;21;19999;-71
2024/04/18 05:48:30;;;;;;;8.07;7.35;;;;;;;;;;8279316;21;20316;-71
2024/04/18 05:51:33;;;;;;;6.20;4.18;;;;;;;;;;8279177;21;20011;-73
2024/04/18 05:54:54;;;;;;;6.97;5.22;;;;;;;;;;8279009;21;20018;-71
2024/04/18 05:58:15;;;;;;;6.70;4.15;;;;;;;;;;8280461;21;20014;-72
2024/04/18 06:01:30;;;;;;;7.07;4.93;;;;;;;;;;8278930;21;20050;-72
2024/04/18 06:04:33;;;;;;;7.55;4.95;;;;;;;;;;8234085;21;20003;-72
2024/04/18 06:08:05;;;;;;;6.68;3.83;;;;;;;;;;8279240;21;19999;-71
2024/04/18 06:11:08;;;;;;;7.55;3.63;;;;;;;;;;8277799;21;20023;-72
2024/04/18 06:14:10;;;;;;;7.13;4.97;;;;;;;;;;8233023;21;20014;-71
2024/04/18 06:17:13;;;;;;;8.05;5.80;;;;;;;;;;8279462;21;20408;-71
2024/04/18 06:20:25;;;;;;;6.43;3.90;;;;;;;;;;8279987;21;20010;-71
2024/04/18 06:23:27;;;;;;;9.20;4.32;;;;;;;;;;8281359;21;19995;-71
2024/04/18 06:26:49;;;;;;;8.75;5.65;;;;;;;;;;8278148;21;20625;-71
2024/04/18 06:29:52;;;;;;;5.28;3.72;;;;;;;;;;8277939;21;20006;-72
2024/04/18 06:32:54;;;;;;;9.50;8.70;;;;;;;;;;8231663;21;20333;-70
2024/04/18 06:35:58;;;;;;;6.45;4.00;;;;;;;;;;8182893;21;20906;-72
2024/04/18 06:39:01;;;;;;;5.43;4.13;;;;;;;;;;8271716;21;20002;-72
2024/04/18 06:42:04;;;;;;;5.93;3.53;;;;;;;;;;8273534;21;19999;-72
2024/04/18 06:45:07;;;;;;;3.53;2.55;;;;;;;;;;8230917;21;20011;-71
2024/04/18 06:48:09;;;;;;;4.15;3.40;;;;;;;;;;8273448;21;20009;-71
2024/04/18 06:51:12;;;;;;;5.95;4.65;;;;;;;;;;8229656;21;20810;-72
2024/04/18 06:54:15;;;;;;;6.28;4.43;;;;;;;;;;8277535;21;19995;-72
2024/04/18 06:57:17;;;;;;;3.60;2.60;;;;;;;;;;8276272;21;20762;-72
2024/04/18 07:00:20;;;;;;;3.70;2.63;;;;;;;;;;8276443;21;19995;-72
2024/04/18 07:03:23;;;;;;;3.97;3.00;;;;;;;;;;8276543;21;20749;-72
2024/04/18 07:06:26;;;;;;;4.82;3.65;;;;;;;;;;8277637;21;19995;-73
2024/04/18 07:09:37;;;;;;;;;;;;;;;;;;8280583;21;20073;-72
2024/04/18 07:12:52;;;;;;;5.72;4.60;;;;;;;;;;8279688;21;19928;-72
2024/04/18 07:16:00;;;;;;;5.32;3.47;;;;;;;;;;8277638;21;20010;-71
2024/04/18 07:19:21;;;;;;;3.80;2.60;;;;;;;;;;8279008;21;20969;-72
2024/04/18 07:22:30;;;;;;;4.10;2.50;;;;;;;;;;8278331;21;20010;-73
2024/04/18 07:25:32;;;;;;;3.58;2.20;;;;;;;;;;8281379;21;20009;-73
2024/04/18 07:28:35;;;;;;;4.85;2.45;;;;;;;;;;8189066;21;20011;-72
2024/04/18 07:31:38;;;;;;;3.75;2.75;;;;;;;;;;8278958;21;20071;-72
2024/04/18 07:34:46;;;;;;;2.97;1.83;;;;;;;;;;8278859;21;20013;-72
2024/04/18 07:37:49;;;;;;;4.05;2.17;;;;;;;;;;8277608;21;19995;-72
2024/04/18 07:40:51;;;;;;;3.33;2.65;;;;;;;;;;8280142;21;20097;-72
2024/04/18 07:43:54;;;;;;;3.25;2.17;;;;;;;;;;8276027;21;20007;-72
2024/04/18 07:46:57;;;;;;;4.95;3.30;;;;;;;;;;8277582;21;20009;-72
2024/04/18 07:49:59;;;;;;;2.95;2.65;;;;;;;;;;8278624;21;20006;-72
2024/04/18 07:53:02;;;;;;;3.58;2.35;;;;;;;;;;8278463;21;20057;-72
2024/04/18 07:56:11;;;;;;;3.83;1.95;;;;;;;;;;8236660;21;20006;-72
2024/04/18 07:59:15;;;;;;;3.78;2.42;;;;;;;;;;8281255;21;19995;-72
2024/04/18 08:02:19;;;;;;;3.83;2.35;;;;;;;;;;8191252;21;20740;-73
2024/04/18 08:05:25;;;;;;;3.00;2.30;;;;;;;;;;8236112;21;19999;-72
2024/04/18 08:08:31;;;;;;;3.50;2.33;;;;;;;;;;8282467;21;20002;-72
2024/04/18 08:11:38;;;;;;;6.15;2.40;;;;;;;;;;8234062;21;20562;-71
2024/04/18 08:15:02;;;;;;;6.28;4.75;;;;;;;;;;8279823;21;20005;-71
2024/04/18 08:18:16;;;;;;;7.55;5.30;;;;;;;;;;8280929;21;19999;-71
2024/04/18 08:21:18;;;;;;;6.40;5.50;;;;;;;;;;8280667;21;20030;-71
2024/04/18 08:24:27;;;;;;;5.07;3.45;;;;;;;;;;8234208;21;20047;-71
2024/04/18 08:27:42;;;;;;;3.40;2.03;;;;;;;;;;8281477;21;20576;-71
2024/04/18 08:30:45;;;;;;;4.50;3.80;;;;;;;;;;8281229;21;20081;-73
2024/04/18 08:33:49;;;;;;;5.13;3.08;;;;;;;;;;8280848;21;20296;-72
2024/04/18 08:37:04;;;;;;;4.55;3.42;;;;;;;;;;8279477;21;20007;-71
2024/04/18 08:40:07;;;;;;;5.07;4.57;;;;;;;;;;8236124;21;20007;-71
2024/04/18 08:43:11;;;;;;;3.05;2.05;;;;;;;;;;8281147;21;20047;-71
2024/04/18 08:46:16;;;;;;;4.25;3.35;;;;;;;;;;8280033;21;20003;-72
2024/04/18 08:49:19;;;;;;;6.18;5.57;;;;;;;;;;8279119;21;20014;-72
2024/04/18 08:52:22;;;;;;;6.78;3.50;;;;;;;;;;8282469;21;20007;-72
2024/04/18 08:55:24;;;;;;;4.10;3.00;;;;;;;;;;8280903;21;20729;-71
2024/04/18 08:58:27;;;;;;;5.30;3.33;;;;;;;;;;8189449;21;19999;-71
2024/04/18 09:01:30;;;;;;;4.50;3.35;;;;;;;;;;8282508;21;19995;-71
2024/04/18 09:04:34;;;;;;;5.35;2.67;;;;;;;;;;8236318;21;20088;-71
2024/04/18 09:07:37;;;;;;;5.80;3.53;;;;;;;;;;8281465;21;19995;-71
2024/04/18 09:10:40;;;;;;;5.57;2.72;;;;;;;;;;8233129;21;20046;-71
2024/04/18 09:13:46;;;;;;;4.53;2.90;;;;;;;;;;8278391;21;19995;-72
2024/04/18 09:16:49;;;;;;;5.43;2.10;;;;;;;;;;8281918;21;19991;-71
2024/04/18 09:19:51;;;;;;;5.93;5.40;;;;;;;;;;8231915;21;20320;-72
2024/04/18 09:22:54;;;;;;;3.95;3.42;;;;;;;;;;8281110;21;20005;-72
2024/04/18 09:25:56;;;;;;;5.53;3.00;;;;;;;;;;8279170;21;20015;-71
2024/04/18 09:29:00;;;;;;;3.75;2.85;;;;;;;;;;8281809;21;19999;-71
2024/04/18 09:32:03;;;;;;;4.32;3.72;;;;;;;;;;8279819;21;20003;-72
2024/04/18 09:35:06;;;;;;;3.72;3.08;;;;;;;;;;8282418;21;20077;-72
2024/04/18 09:38:12;;;;;;;5.88;5.25;;;;;;;;;;8282104;21;20416;-73
2024/04/18 09:41:20;;;;;;;4.32;3.45;;;;;;;;;;8284615;21;20072;-72
2024/04/18 09:44:25;;;;;;;3.17;2.72;;;;;;;;;;8282724;21;20061;-71
2024/04/18 09:47:32;;;;;;;4.32;3.53;;;;;;;;;;8238406;21;19999;-72
2024/04/18 09:50:35;;;;;;;3.90;3.17;;;;;;;;;;8235568;21;19995;-72
2024/04/18 09:53:39;;;;;;;4.38;3.05;;;;;;;;;;8279979;21;20372;-72
2024/04/18 09:56:44;;;;;;;5.60;3.17;;;;;;;;;;8236352;21;20622;-72
2024/04/18 09:59:47;;;;;;;4.25;2.75;;;;;;;;;;8281320;21;20010;-72
2024/04/18 10:02:50;;;;;;;5.35;3.45;;;;;;;;;;8236506;21;20013;-72
2024/04/18 10:05:55;;;;;;;5.28;4.18;;;;;;;;;;8280830;21;20010;-71
2024/04/18 10:08:58;;;;;;;4.20;2.45;;;;;;;;;;8236400;21;20518;-72
2024/04/18 10:12:02;;;;;;;5.72;2.97;;;;;;;;;;8280508;21;19995;-72
2024/04/18 10:15:07;;;;;;;3.38;1.80;;;;;;;;;;8284517;21;20091;-71
2024/04/18 10:18:17;;;;;;;4.25;3.05;;;;;;;;;;8257650;21;20018;-70
2024/04/18 10:21:23;;;;;;;5.63;2.75;;;;;;;;;;8308115;21;20006;-72
2024/04/18 10:24:40;;;;;;;3.38;2.13;;;;;;;;;;8285259;21;20058;-72
2024/04/18 10:27:43;;;;;;;2.83;2.30;;;;;;;;;;8283841;21;20033;-71
2024/04/18 10:30:45;;;;;;;5.03;3.40;;;;;;;;;;8281836;21;20042;-72
2024/04/18 10:33:50;;;;;;;3.13;2.50;;;;;;;;;;8280680;21;20009;-71
2024/04/18 10:36:54;;;;;;;3.75;2.75;;;;;;;;;;8280811;21;20002;-71
2024/04/18 10:39:57;;;;;;;7.88;3.28;;;;;;;;;;8282282;21;19999;-70
2024/04/18 10:43:14;;;;;;;3.17;1.88;;;;;;;;;;8236147;21;20003;-71
2024/04/18 10:46:21;;;;;;;3.72;2.00;;;;;;;;;;8282823;21;19995;-72
2024/04/18 10:49:25;;;;;;;2.60;2.00;;;;;;;;;;8279859;21;20000;-72
2024/04/18 10:52:28;;;;;;;3.63;2.83;;;;;;;;;;8282443;21;20547;-72
2024/04/18 10:55:32;;;;;;;4.10;2.53;;;;;;;;;;8280198;21;20464;-72
2024/04/18 10:58:36;;;;;;;3.83;2.70;;;;;;;;;;8282492;21;21053;-72
2024/04/18 11:01:39;;;;;;;4.65;3.17;;;;;;;;;;8234631;21;20007;-71
2024/04/18 11:04:42;;;;;;;4.15;2.83;;;;;;;;;;8281485;21;20005;-72
2024/04/18 11:07:44;;;;;;;4.03;2.50;;;;;;;;;;8279361;21;20006;-72
2024/04/18 11:10:47;;;;;;;3.10;1.77;;;;;;;;;;8278940;21;20014;-72
2024/04/18 11:13:50;;;;;;;2.67;1.77;;;;;;;;;;8279607;21;20003;-73
2024/04/18 11:16:57;;;;;;;4.10;3.65;;;;;;;;;;8280589;21;19999;-73
2024/04/18 11:20:00;;;;;;;3.78;3.35;;;;;;;;;;8279188;21;20757;-72
2024/04/18 11:23:04;;;;;;;2.88;2.10;;;;;;;;;;8279619;21;19995;-72
2024/04/18 11:26:19;;;;;;;4.20;3.42;;;;;;;;;;8239518;21;19995;-72
2024/04/18 11:29:28;;;;;;;5.65;2.67;;;;;;;;;;8276646;21;20014;-72
2024/04/18 11:32:31;;;;;;;4.20;2.60;;;;;;;;;;8278153;21;20013;-72
2024/04/18 11:35:35;;;;;;;3.65;2.42;;;;;;;;;;8191661;21;20429;-72
2024/04/18 11:38:44;;;;;;;3.17;1.85;;;;;;;;;;8278769;21;20729;-72
2024/04/18 11:41:47;;;;;;;3.05;2.33;;;;;;;;;;8278477;21;19991;-72
2024/04/18 11:44:50;;;;;;;4.28;2.05;;;;;;;;;;8279792;21;20030;-72
2024/04/18 11:47:59;;;;;;;3.95;2.40;;;;;;;;;;8281593;21;20515;-72
2024/04/18 11:51:02;;;;;;;5.80;3.53;;;;;;;;;;8191230;21;19999;-72
2024/04/18 11:54:05;;;;;;;4.65;4.25;;;;;;;;;;8278057;21;19995;-71
2024/04/18 11:57:08;;;;;;;3.65;2.75;;;;;;;;;;8279712;21;20033;-71
2024/04/18 12:00:11;;;;;;;3.88;2.95;;;;;;;;;;8278840;21;20015;-72
2024/04/18 12:03:35;;;;;;;6.32;4.20;;;;;;;;;;8245514;21;19995;-72
2024/04/18 12:06:58;;;;;;;12.57;10.02;;;;;;;;;;8282624;21;19999;-71
2024/04/18 12:10:01;;;;;;;10.80;7.63;;;;;;;;;;8280874;21;20609;-72
2024/04/18 12:13:03;;;;;;;6.30;5.43;;;;;;;;;;8282249;21;20072;-72
2024/04/18 12:16:06;;;;;;;13.05;10.35;;;;;;;;;;8235672;21;19995;-71
2024/04/18 12:19:09;;;;;;;11.30;8.65;;;;;;;;;;8280680;21;19995;-71
2024/04/18 12:22:19;;;;;;;7.97;4.25;;;;;;;;;;8235726;21;20035;-72
2024/04/18 12:25:42;;;;;;;6.15;5.38;;;;;;;;;;8280891;21;20705;-71
2024/04/18 12:28:45;;;;;;;3.03;1.77;;;;;;;;;;8280360;21;20010;-72
2024/04/18 12:31:48;;;;;;;2.70;1.48;;;;;;;;;;8281986;21;20014;-71
2024/04/18 12:34:51;;;;;;;2.65;1.63;;;;;;;;;;8287909;21;20003;-72
2024/04/18 12:37:54;;;;;;;4.68;4.20;;;;;;;;;;8310840;21;20073;-72
2024/04/18 12:40:57;;;;;;;2.40;1.50;;;;;;;;;;8291576;21;20017;-72
2024/04/18 12:44:02;;;;;;;2.03;1.10;;;;;;;;;;8281889;21;19999;-72
2024/04/18 12:47:20;;;;;;;2.10;1.83;;;;;;;;;;8242099;21;20093;-72
2024/04/18 12:50:23;;;;;;;3.78;2.28;;;;;;;;;;8278344;21;20432;-72
2024/04/18 12:53:26;;;;;;;3.10;1.80;;;;;;;;;;8282257;21;19995;-72
2024/04/18 12:56:31;;;;;;;2.33;2.08;;;;;;;;;;8279981;21;20444;-72
2024/04/18 12:59:54;;;;;;;5.45;2.35;;;;;;;;;;8241640;21;20067;-72
2024/04/18 13:03:00;;;;;;;1.98;1.33;;;;;;;;;;8194752;21;20009;-72
2024/04/18 13:06:09;;;;;;;4.70;1.92;;;;;;;;;;8279877;21;20003;-74
2024/04/18 13:09:23;;;;;;;2.78;1.73;;;;;;;;;;8240966;21;20015;-73
2024/04/18 13:12:25;;;;;;;6.30;2.72;;;;;;;;;;8282071;21;20080;-72
2024/04/18 13:15:30;;;;;;;4.95;2.90;;;;;;;;;;8279957;21;20007;-74
2024/04/18 13:18:43;;;;;;;3.85;1.70;;;;;;;;;;8238468;21;20010;-72
2024/04/18 13:22:05;;;;;;;3.42;1.52;;;;;;;;;;8280204;21;19995;-73
2024/04/18 13:25:08;;;;;;;2.80;1.58;;;;;;;;;;8279834;21;19994;-72
2024/04/18 13:28:13;;;;;;;2.83;1.70;;;;;;;;;;8281965;21;20007;-71
2024/04/18 13:31:16;;;;;;;3.58;2.40;;;;;;;;;;8280844;21;19995;-72
2024/04/18 13:34:21;;;;;;;4.00;1.98;;;;;;;;;;8282555;21;20010;-73
2024/04/18 13:37:25;;;;;;;3.50;2.88;;;;;;;;;;8281277;21;20798;-72
2024/04/18 13:40:46;;;;;;;2.42;1.52;;;;;;;;;;8280450;21;20009;-73
2024/04/18 13:43:49;;;;;;;4.47;1.92;;;;;;;;;;8280712;21;20003;-73
2024/04/18 13:47:09;;;;;;;2.13;1.38;;;;;;;;;;8240477;21;20013;-72
2024/04/18 13:50:15;;;;;;;3.22;1.90;;;;;;;;;;8235598;21;20010;-72
2024/04/18 13:53:18;;;;;;;4.82;3.20;;;;;;;;;;8281538;21;19995;-70
2024/04/18 13:56:20;;;;;;;2.95;1.95;;;;;;;;;;8278403;21;19999;-72
2024/04/18 13:59:41;;;;;;;4.40;4.00;;;;;;;;;;8278473;21;20432;-73
2024/04/18 14:03:02;;;;;;;3.85;2.10;;;;;;;;;;8279437;21;20072;-73
2024/04/18 14:06:07;;;;;;;3.40;2.08;;;;;;;;;;8282182;21;20808;-73
2024/04/18 14:09:10;;;;;;;3.03;2.33;;;;;;;;;;8277854;21;20475;-72
2024/04/18 14:12:19;;;;;;;4.38;1.90;;;;;;;;;;8236075;21;20828;-73
2024/04/18 14:15:36;;;;;;;2.58;1.50;;;;;;;;;;8277874;21;20006;-72
2024/04/18 14:18:58;;;;;;;2.90;2.00;;;;;;;;;;8279349;21;20081;-73
2024/04/18 14:22:08;;;;;;;2.88;1.48;;;;;;;;;;8279199;21;20014;-72
2024/04/18 14:25:11;;;;;;;2.55;1.98;;;;;;;;;;8189175;21;20002;-72
2024/04/18 14:28:13;;;;;;;5.10;4.70;;;;;;;;;;8234208;21;20687;-72
2024/04/18 14:31:47;;;;;;;2.95;2.13;;;;;;;;;;8281235;21;19995;-72
2024/04/18 14:35:09;;;;;;;4.55;2.28;;;;;;;;;;8278167;21;20003;-73
2024/04/18 14:38:12;;;;;;;3.15;1.80;;;;;;;;;;8278956;21;19995;-73
2024/04/18 14:41:15;;;;;;;3.95;1.88;;;;;;;;;;8232722;21;19995;-72
2024/04/18 14:44:26;;;;;;;4.20;1.50;;;;;;;;;;8279605;21;20003;-73
2024/04/18 14:47:36;;;;;;;2.42;1.15;;;;;;;;;;8232888;21;20032;-72
2024/04/18 14:50:39;;;;;;;3.20;1.20;;;;;;;;;;8279181;21;20002;-72
2024/04/18 14:53:42;;;;;;;3.72;3.42;;;;;;;;;;8278393;21;20570;-73
2024/04/18 14:56:45;;;;;;;3.50;2.30;;;;;;;;;;8280449;21;20010;-73
2024/04/18 15:00:08;;;;;;;2.28;1.30;;;;;;;;;;8241724;21;20348;-73
2024/04/18 15:03:11;;;;;;;3.97;1.55;;;;;;;;;;8276544;21;19995;-73
2024/04/18 15:06:18;;;;;;;3.42;2.17;;;;;;;;;;8277372;21;20010;-73
2024/04/18 15:09:40;;;;;;;4.28;3.92;;;;;;;;;;8242669;21;20738;-72
2024/04/18 15:12:46;;;;;;;2.88;1.88;;;;;;;;;;8233743;21;20019;-74
2024/04/18 15:15:49;;;;;;;3.35;2.83;;;;;;;;;;8232917;21;20003;-73
2024/04/18 15:18:51;;;;;;;3.55;2.58;;;;;;;;;;8233950;21;20436;-73
2024/04/18 15:21:57;;;;;;;3.38;2.53;;;;;;;;;;8278275;21;20494;-73
2024/04/18 15:25:14;;;;;;;3.47;2.45;;;;;;;;;;8240392;21;20960;-72
2024/04/18 15:28:17;;;;;;;3.47;2.38;;;;;;;;;;8234475;21;20797;-73
2024/04/18 15:31:21;;;;;;;3.13;1.92;;;;;;;;;;8190458;21;20047;-72
2024/04/18 15:34:30;;;;;;;2.78;1.83;;;;;;;;;;8282352;21;20031;-73
2024/04/18 15:37:33;;;;;;;3.60;2.47;;;;;;;;;;8279814;21;20755;-73
2024/04/18 15:40:36;;;;;;;3.35;2.55;;;;;;;;;;8277768;21;20010;-72
2024/04/18 15:43:39;;;;;;;4.18;2.55;;;;;;;;;;8281216;21;20046;-73
2024/04/18 15:47:01;;;;;;;4.70;4.10;;;;;;;;;;8240167;21;20361;-73
2024/04/18 15:50:23;;;;;;;4.75;4.20;;;;;;;;;;8239203;21;20375;-72
2024/04/18 15:53:26;;;;;;;3.05;1.63;;;;;;;;;;8233738;21;20003;-72
2024/04/18 15:56:40;;;;;;;2.30;1.50;;;;;;;;;;8279597;21;20031;-72
2024/04/18 16:00:03;;;;;;;1.95;1.10;;;;;;;;;;8277840;21;19999;-71
2024/04/18 16:03:13;;;;;;;3.78;1.67;;;;;;;;;;8236650;21;19999;-72
2024/04/18 16:06:25;;;;;;;3.70;3.40;;;;;;;;;;8278381;21;20391;-72
2024/04/18 16:09:46;;;;;;;4.05;1.92;;;;;;;;;;8280831;21;20444;-72
2024/04/18 16:12:55;;;;;;;4.35;2.50;;;;;;;;;;8279700;21;20089;-72
2024/04/18 16:16:02;;;;;;;19.90;9.85;;;;;;;;;;8278912;21;20006;-71
2024/04/18 16:19:11;;;;;;;17.73;10.80;;;;;;;;;;8279370;21;20422;-72
2024/04/18 16:22:13;;;;;;;12.88;5.88;;;;;;;;;;8276578;21;19999;-72
2024/04/18 16:25:22;;;;;;;10.38;4.47;;;;;;;;;;8236147;21;20010;-72
2024/04/18 16:28:25;;;;;;;18.63;8.95;;;;;;;;;;8231167;21;20076;-72
2024/04/18 16:31:34;;;;;;;7.78;4.45;;;;;;;;;;8278137;21;20011;-72
2024/04/18 16:34:50;;;;;;;13.35;5.90;;;;;;;;;;8278493;21;20436;-70
2024/04/18 16:37:52;;;;;;;9.82;4.07;;;;;;;;;;8281689;21;20006;-71
2024/04/18 16:40:55;;;;;;;12.52;6.15;;;;;;;;;;8277660;21;20010;-71
2024/04/18 16:44:03;;;;;;;10.02;4.45;;;;;;;;;;8277609;21;20014;-71
2024/04/18 16:47:06;;;;;;;7.93;3.17;;;;;;;;;;8188273;21;20005;-71
2024/04/18 16:50:08;;;;;;;10.80;7.97;;;;;;;;;;8280290;21;19995;-71
2024/04/18 16:53:11;;;;;;;4.97;2.38;;;;;;;;;;8279370;21;20009;-72
2024/04/18 16:56:17;;;;;;;8.65;4.07;;;;;;;;;;8235817;21;20010;-72
2024/04/18 16:59:28;;;;;;;6.45;4.70;;;;;;;;;;8237805;21;20077;-71
2024/04/18 17:02:31;;;;;;;5.82;3.28;;;;;;;;;;8279483;21;20785;-72
2024/04/18 17:05:34;;;;;;;4.93;2.72;;;;;;;;;;8234411;21;20424;-71
2024/04/18 17:08:37;;;;;;;4.03;2.80;;;;;;;;;;8279554;21;20523;-71
2024/04/18 17:11:40;;;;;;;4.65;2.28;;;;;;;;;;8280013;21;19991;-71
2024/04/18 17:15:01;;;;;;;4.00;3.60;;;;;;;;;;8242815;21;20444;-71
2024/04/18 17:18:05;;;;;;;3.75;2.50;;;;;;;;;;8280464;21;20009;-72
2024/04/18 17:21:07;;;;;;;8.65;6.75;;;;;;;;;;8281936;21;20459;-72
2024/04/18 17:24:10;;;;;;;3.95;2.97;;;;;;;;;;8280954;21;20014;-72
2024/04/18 17:27:32;;;;;;;6.57;3.22;;;;;;;;;;8280458;21;19995;-71
2024/04/18 17:30:35;;;;;;;7.95;5.00;;;;;;;;;;8280479;21;19995;-72
2024/04/18 17:33:38;;;;;;;6.97;4.13;;;;;;;;;;8235960;21;20017;-71
2024/04/18 17:36:40;;;;;;;4.70;2.50;;;;;;;;;;8279584;21;20027;-72
2024/04/18 17:39:46;;;;;;;7.25;4.38;;;;;;;;;;8234107;21;20076;-72
2024/04/18 17:42:49;;;;;;;6.80;3.28;;;;;;;;;;8277197;21;19999;-71
2024/04/18 17:45:52;;;;;;;11.15;7.80;;;;;;;;;;8275781;21;20302;-72
2024/04/18 17:48:55;;;;;;;6.30;4.45;;;;;;;;;;8279414;21;19998;-72
2024/04/18 17:51:58;;;;;;;4.25;2.85;;;;;;;;;;8276949;21;19999;-72
2024/04/18 17:55:01;;;;;;;5.38;3.80;;;;;;;;;;8231463;21;20096;-72
2024/04/18 17:58:04;;;;;;;5.13;2.83;;;;;;;;;;8281612;21;20084;-73
2024/04/18 18:01:07;;;;;;;4.95;3.22;;;;;;;;;;8280302;21;19995;-73
2024/04/18 18:04:10;;;;;;;7.72;4.78;;;;;;;;;;8235893;21;19999;-73
2024/04/18 18:07:13;;;;;;;6.68;4.05;;;;;;;;;;8279898;21;19991;-73
2024/04/18 18:10:16;;;;;;;8.70;7.90;;;;;;;;;;8280219;21;20336;-72
2024/04/18 18:13:39;;;;;;;4.55;3.35;;;;;;;;;;8206710;21;19995;-72
2024/04/18 18:16:41;;;;;;;6.60;6.00;;;;;;;;;;8281162;21;20580;-73
2024/04/18 18:19:44;;;;;;;5.90;3.55;;;;;;;;;;8279446;21;20005;-72
2024/04/18 18:22:47;;;;;;;16.58;9.90;;;;;;;;;;8281324;21;19995;-72
2024/04/18 18:25:50;;;;;;;8.80;5.53;;;;;;;;;;8278804;21;20717;-72
2024/04/18 18:28:53;;;;;;;6.97;6.30;;;;;;;;;;8278318;21;20835;-73
2024/04/18 18:31:56;;;;;;;4.53;3.53;;;;;;;;;;8277465;21;20430;-72
2024/04/18 18:34:58;;;;;;;7.50;4.10;;;;;;;;;;8282078;21;20010;-73
2024/04/18 18:38:03;;;;;;;6.28;5.68;;;;;;;;;;8281589;21;20783;-73
2024/04/18 18:41:06;;;;;;;4.80;3.13;;;;;;;;;;8281923;21;20010;-71
2024/04/18 18:44:08;;;;;;;7.20;4.47;;;;;;;;;;8279853;21;20405;-72
2024/04/18 18:47:11;;;;;;;5.85;3.75;;;;;;;;;;8281358;21;20014;-72